Time;durP1;ratioP1;P1;durP2;ratioP2;P2;SDS_P1;SDS_P2;PMS_P1;PMS_P2;Temp;Humidity;BMP_temperature;BMP_pressure;BME280_temperature;BME280_humidity;BME280_pressure;Samples;Min_cycle;Max_cycle;Signal;HPM_P1;HPM_P2
2022/12/05 00:01:50;;;;;;;39.72;17.60;;;;;;;-143.48;81.60;118439.88;5036631;28;20021;-74
2022/12/05 00:04:15;;;;;;;35.35;16.95;;;;;;;-143.48;81.39;118439.88;5036074;28;20072;-74
2022/12/05 00:06:41;;;;;;;33.00;16.13;;;;;;;-143.48;81.68;118439.88;5035299;28;20070;-72
2022/12/05 00:09:08;;;;;;;34.20;16.17;;;;;;;-143.48;82.07;118439.88;5035093;28;20029;-75
2022/12/05 00:11:35;;;;;;;35.00;15.88;;;;;;;-143.48;81.63;118439.88;5034947;28;20124;-75
2022/12/05 00:14:02;;;;;;;37.17;16.95;;;;;;;-143.48;81.30;118439.88;5035048;28;20408;-74
2022/12/05 00:16:30;;;;;;;37.58;16.73;;;;;;;-143.48;81.52;118439.88;5036145;28;20091;-75
2022/12/05 00:18:58;;;;;;;37.55;16.73;;;;;;;-143.48;81.63;118439.88;5036045;28;20022;-74
2022/12/05 00:21:26;;;;;;;37.92;17.10;;;;;;;-143.48;81.65;118439.88;5036144;28;20053;-74
2022/12/05 00:23:54;;;;;;;38.75;17.05;;;;;;;-143.48;82.10;118439.88;5036082;28;20116;-75
2022/12/05 00:26:20;;;;;;;38.85;16.52;;;;;;;-143.48;81.90;118439.88;5036002;28;20033;-74
2022/12/05 00:28:46;;;;;;;34.22;15.93;;;;;;;-143.48;81.29;118439.88;5034608;28;20021;-74
2022/12/05 00:31:15;;;;;;;34.65;16.15;;;;;;;-143.48;81.48;118439.88;5035928;28;20021;-75
2022/12/05 00:33:42;;;;;;;40.45;16.77;;;;;;;-143.48;81.76;118439.88;5035795;28;20030;-75
2022/12/05 00:36:11;;;;;;;40.33;16.08;;;;;;;-143.48;81.62;118439.88;5035848;28;20525;-74
2022/12/05 00:38:37;;;;;;;39.67;15.95;;;;;;;-143.48;82.64;118439.88;5035679;28;20036;-74
2022/12/05 00:41:08;;;;;;;36.42;16.55;;;;;;;-143.48;81.94;118439.88;5035755;28;20441;-75
2022/12/05 00:43:33;;;;;;;41.90;17.65;;;;;;;-143.48;82.41;118439.88;5035834;28;20033;-75
2022/12/05 00:46:04;;;;;;;39.72;17.33;;;;;;;-143.48;82.10;118439.88;5035136;28;20048;-74
2022/12/05 00:48:29;;;;;;;38.40;16.30;;;;;;;-143.48;81.79;118439.88;5035663;28;20072;-75
2022/12/05 00:51:07;;;;;;;33.38;15.60;;;;;;;-143.48;81.72;118439.88;5035462;28;20053;-74
2022/12/05 00:53:33;;;;;;;33.63;15.70;;;;;;;-143.48;82.06;118439.88;5035704;28;20091;-75
2022/12/05 00:56:03;;;;;;;37.70;16.83;;;;;;;-143.48;82.03;118439.88;5035233;28;20148;-74
2022/12/05 00:58:29;;;;;;;35.10;16.27;;;;;;;-143.48;83.48;118439.88;5035476;28;20044;-74
2022/12/05 01:00:55;;;;;;;35.67;17.30;;;;;;;-143.48;83.41;118439.88;5034109;28;20048;-74
2022/12/05 01:03:20;;;;;;;38.67;17.33;;;;;;;-143.48;82.71;118439.88;5035380;28;20083;-75
2022/12/05 01:05:45;;;;;;;35.22;17.17;;;;;;;-143.48;82.91;118439.88;5035070;28;20095;-74
2022/12/05 01:08:10;;;;;;;37.67;17.10;;;;;;;-143.48;82.60;118439.88;5033995;28;20535;-75
2022/12/05 01:10:36;;;;;;;37.55;17.13;;;;;;;-143.48;83.14;118439.88;5035286;28;20032;-75
2022/12/05 01:13:01;;;;;;;34.33;15.75;;;;;;;-143.48;84.09;118439.88;5035217;28;20029;-75
2022/12/05 01:15:26;;;;;;;37.53;16.98;;;;;;;-143.48;83.93;118439.88;5033818;28;20025;-75
2022/12/05 01:17:51;;;;;;;41.00;17.02;;;;;;;-143.48;84.67;118439.88;5035247;28;20021;-74
2022/12/05 01:20:17;;;;;;;36.45;17.25;;;;;;;-143.48;84.40;118439.88;5034942;28;20025;-74
2022/12/05 01:22:42;;;;;;;42.70;18.13;;;;;;;-143.48;84.23;118439.88;5035024;28;20020;-75
2022/12/05 01:25:08;;;;;;;43.20;16.98;;;;;;;-143.48;84.55;118439.88;5033805;28;20061;-75
2022/12/05 01:27:33;;;;;;;37.72;16.08;;;;;;;-143.48;85.74;118439.88;5034831;28;20026;-75
2022/12/05 01:29:58;;;;;;;41.05;18.02;;;;;;;-143.48;86.30;118439.88;5034934;28;20521;-74
2022/12/05 01:32:24;;;;;;;42.92;18.75;;;;;;;-143.48;85.42;118439.88;5034653;28;20078;-74
2022/12/05 01:34:49;;;;;;;35.25;16.75;;;;;;;-143.48;86.30;118439.88;5033845;28;20156;-74
2022/12/05 01:37:14;;;;;;;35.55;17.42;;;;;;;-143.48;86.36;118439.88;5034691;28;20079;-75
2022/12/05 01:39:40;;;;;;;38.78;17.45;;;;;;;-143.48;86.65;118439.88;5034650;28;20043;-73
2022/12/05 01:42:05;;;;;;;36.47;15.85;;;;;;;-143.48;87.00;118439.88;5032732;28;20138;-72
2022/12/05 01:44:31;;;;;;;37.83;17.30;;;;;;;-143.48;87.64;118439.88;5032610;28;20026;-74
2022/12/05 01:46:56;;;;;;;36.22;16.95;;;;;;;-143.48;88.21;118439.88;5032460;28;20021;-73
2022/12/05 01:49:24;;;;;;;37.58;17.45;;;;;;;-143.48;88.00;118439.88;5032600;28;20070;-73
2022/12/05 01:52:00;;;;;;;39.55;18.33;;;;;;;-143.48;88.09;118439.88;5032525;28;20052;-73
2022/12/05 01:54:25;;;;;;;45.28;18.70;;;;;;;-143.48;88.72;118439.88;5032447;28;20032;-73
2022/12/05 01:56:56;;;;;;;39.63;17.95;;;;;;;-143.48;88.68;118439.88;5031666;28;20416;-75
2022/12/05 01:59:23;;;;;;;44.75;18.10;;;;;;;-143.48;88.95;118439.88;5034263;28;20029;-74
2022/12/05 02:01:48;;;;;;;41.00;17.83;;;;;;;-143.48;89.13;118439.88;5034172;28;20017;-75
2022/12/05 02:04:14;;;;;;;40.35;18.23;;;;;;;-143.48;89.91;118439.88;5034137;28;20037;-75
2022/12/05 02:06:39;;;;;;;49.30;18.63;;;;;;;-143.48;89.96;118439.88;5034153;28;20025;-74
2022/12/05 02:09:05;;;;;;;39.97;17.65;;;;;;;-143.48;89.80;118439.88;5034089;28;20104;-74
2022/12/05 02:11:32;;;;;;;41.92;18.23;;;;;;;-143.48;90.49;118439.88;5032803;28;20030;-74
2022/12/05 02:14:26;;;;;;;40.80;18.58;;;;;;;-143.48;90.27;118439.88;5034043;28;20091;-73
2022/12/05 02:17:04;;;;;;;40.03;17.65;;;;;;;-143.48;90.66;118439.88;5034027;28;20060;-74
2022/12/05 02:19:49;;;;;;;40.65;17.27;;;;;;;-143.48;90.22;118439.88;5034141;28;20030;-74
2022/12/05 02:22:32;;;;;;;39.58;17.23;;;;;;;-143.48;90.49;118439.88;5032574;28;20032;-74
2022/12/05 02:25:18;;;;;;;40.75;17.35;;;;;;;-143.48;90.69;118439.88;5033782;28;20108;-74
2022/12/05 02:27:50;;;;;;;41.55;18.48;;;;;;;-143.48;90.75;118439.88;5033895;28;20519;-73
2022/12/05 02:30:21;;;;;;;39.33;17.35;;;;;;;-143.48;90.58;118439.88;5033771;28;20652;-75
2022/12/05 02:32:50;;;;;;;41.65;17.58;;;;;;;-143.48;90.94;118439.88;5033762;28;20029;-74
2022/12/05 02:35:54;;;;;;;36.90;16.67;;;;;;;-143.48;90.63;118439.88;5033894;28;20030;-72
2022/12/05 02:38:29;;;;;;;38.45;17.30;;;;;;;-143.48;90.86;118439.88;5033588;28;20044;-74
2022/12/05 02:41:23;;;;;;;40.72;17.20;;;;;;;-143.48;90.57;118439.88;5033513;28;20031;-74
2022/12/05 02:43:58;;;;;;;38.05;16.48;;;;;;;-143.48;90.73;118439.88;5033639;28;20041;-74
2022/12/05 02:46:27;;;;;;;38.30;16.85;;;;;;;-143.48;90.53;118439.88;5032380;28;20025;-74
2022/12/05 02:49:02;;;;;;;36.97;16.38;;;;;;;-143.48;90.38;118439.88;5032114;28;20112;-74
2022/12/05 02:51:38;;;;;;;36.35;15.98;;;;;;;-143.48;90.63;118439.88;5031946;28;20444;-74
2022/12/05 02:54:08;;;;;;;37.10;16.17;;;;;;;-143.48;90.09;118439.88;5033575;28;20514;-74
2022/12/05 02:56:36;;;;;;;35.60;16.95;;;;;;;-143.48;90.09;118439.88;5033220;28;20041;-75
2022/12/05 02:59:02;;;;;;;37.30;16.23;;;;;;;-143.48;90.25;118439.88;5033393;28;20029;-74
2022/12/05 03:01:30;;;;;;;37.72;16.35;;;;;;;-143.48;90.00;118439.88;5033298;28;20087;-74
2022/12/05 03:03:58;;;;;;;33.92;14.82;;;;;;;-143.48;89.57;118439.88;5033265;28;20025;-74
2022/12/05 03:06:33;;;;;;;36.50;16.13;;;;;;;-143.48;89.57;118439.88;5032056;28;20519;-74
2022/12/05 03:09:04;;;;;;;36.42;15.60;;;;;;;-143.48;89.16;118439.88;5036038;28;20021;-74
2022/12/05 03:11:36;;;;;;;35.17;15.65;;;;;;;-143.48;89.13;118439.88;5037419;28;20057;-74
2022/12/05 03:14:05;;;;;;;33.40;14.73;;;;;;;-143.48;88.81;118439.88;5036003;28;20029;-73
2022/12/05 03:16:46;;;;;;;30.10;14.85;;;;;;;-143.48;88.88;118439.88;5037670;28;20029;-68
2022/12/05 03:19:19;;;;;;;34.72;15.05;;;;;;;-143.48;88.82;118439.88;5037373;28;20060;-68
2022/12/05 03:22:12;;;;;;;35.15;15.20;;;;;;;-143.48;89.26;118439.88;5035730;28;20551;-68
2022/12/05 03:24:39;;;;;;;;;;;;;;;-143.48;89.09;118439.88;5036096;28;20061;-68
2022/12/05 03:27:14;;;;;;;29.60;13.98;;;;;;;-143.48;88.81;118439.88;5035884;28;19916;-68
2022/12/05 03:29:57;;;;;;;35.22;14.68;;;;;;;-143.48;89.10;118439.88;5036860;28;20113;-69
2022/12/05 03:32:40;;;;;;;32.17;15.02;;;;;;;-143.48;89.10;118439.88;5036742;28;20026;-68
2022/12/05 03:35:30;;;;;;;29.00;14.68;;;;;;;-143.48;88.37;118439.88;5035444;28;20512;-68
2022/12/05 03:38:07;;;;;;;34.13;14.50;;;;;;;-143.48;88.20;118439.88;5036704;28;20493;-68
2022/12/05 03:40:45;;;;;;;33.10;15.35;;;;;;;-143.48;88.26;118439.88;5035342;28;20426;-70
2022/12/05 03:43:19;;;;;;;30.15;14.30;;;;;;;-143.48;87.83;118439.88;5036605;28;20025;-69
2022/12/05 03:46:01;;;;;;;28.40;14.00;;;;;;;-143.48;87.47;118439.88;5036653;28;20086;-69
2022/12/05 03:48:35;;;;;;;33.20;13.93;;;;;;;-143.48;87.40;118439.88;5036553;28;20029;-68
2022/12/05 03:51:03;;;;;;;31.55;14.65;;;;;;;-143.48;87.18;118439.88;5036618;28;20029;-68
2022/12/05 03:53:52;;;;;;;28.33;14.07;;;;;;;-143.48;87.65;118439.88;5036492;28;20048;-68
2022/12/05 03:56:22;;;;;;;34.53;14.80;;;;;;;-143.48;87.83;118439.88;5034802;28;20054;-68
2022/12/05 03:58:58;;;;;;;27.73;14.27;;;;;;;-143.48;87.82;118439.88;5036330;28;20034;-68
2022/12/05 04:01:27;;;;;;;32.38;14.93;;;;;;;-143.48;87.55;118439.88;5035087;28;20677;-69
2022/12/05 04:03:58;;;;;;;31.23;14.63;;;;;;;-143.48;87.71;118439.88;5035154;28;20021;-68
2022/12/05 04:06:29;;;;;;;30.92;14.85;;;;;;;-143.48;87.20;118439.88;5036280;28;20037;-68
2022/12/05 04:09:03;;;;;;;32.13;15.23;;;;;;;-143.48;87.88;118439.88;5035787;28;20053;-69
2022/12/05 04:11:33;;;;;;;28.98;14.32;;;;;;;-143.48;87.05;118439.88;5035849;28;20033;-68
2022/12/05 04:14:05;;;;;;;30.30;14.07;;;;;;;-143.48;87.31;118439.88;5036094;28;20052;-69
2022/12/05 04:22:26;;;;;;;31.58;15.10;;;;;;;-143.48;87.33;118439.88;5033686;28;20033;-68
2022/12/05 04:27:41;;;;;;;26.98;14.10;;;;;;;-143.48;87.19;118439.88;5033825;28;20040;-68
2022/12/05 04:30:08;;;;;;;33.53;14.70;;;;;;;-143.48;87.36;118439.88;5033468;28;20498;-68
2022/12/05 04:32:53;;;;;;;30.67;14.93;;;;;;;-143.48;86.69;118439.88;5034156;28;20037;-68
2022/12/05 04:35:24;;;;;;;31.50;14.82;;;;;;;-143.48;87.67;118439.88;5035606;28;20033;-68
2022/12/05 04:37:53;;;;;;;29.73;14.85;;;;;;;-143.48;87.88;118439.88;5034479;28;20025;-64
2022/12/05 04:40:28;;;;;;;30.90;15.32;;;;;;;-143.48;87.78;118439.88;5035475;28;20036;-63
2022/12/05 04:42:55;;;;;;;33.05;14.80;;;;;;;-143.48;87.27;118439.88;5035588;28;20018;-64
2022/12/05 04:45:24;;;;;;;30.20;14.98;;;;;;;-143.48;87.34;118439.88;5035726;28;20026;-64
2022/12/05 04:47:55;;;;;;;35.08;15.73;;;;;;;-143.48;87.82;118439.88;5035493;28;20037;-63
2022/12/05 04:50:23;;;;;;;32.20;15.40;;;;;;;-143.48;87.93;118439.88;5035353;28;20366;-63
2022/12/05 04:52:52;;;;;;;33.30;15.77;;;;;;;-143.48;87.96;118439.88;5035291;28;20025;-63
2022/12/05 04:55:24;;;;;;;37.45;15.77;;;;;;;-143.48;87.89;118439.88;5035123;28;20040;-63
2022/12/05 04:58:08;;;;;;;32.20;15.68;;;;;;;-143.48;88.10;118439.88;5035431;28;20032;-63
2022/12/05 05:00:58;;;;;;;35.83;16.15;;;;;;;-143.48;87.60;118439.88;5035200;28;20045;-64
2022/12/05 05:03:28;;;;;;;34.63;16.00;;;;;;;-143.48;88.61;118439.88;5035132;28;20385;-64
2022/12/05 05:05:55;;;;;;;34.42;16.50;;;;;;;-143.48;88.67;118439.88;5035153;28;20029;-63
2022/12/05 05:08:24;;;;;;;38.13;16.77;;;;;;;-143.48;88.67;118439.88;5035103;28;20037;-64
2022/12/05 05:11:13;;;;;;;31.88;15.73;;;;;;;-143.48;88.39;118439.88;5033796;28;20029;-63
2022/12/05 05:13:39;;;;;;;33.47;15.90;;;;;;;-143.48;88.20;118439.88;5034867;28;20389;-63
2022/12/05 05:16:05;;;;;;;34.33;15.73;;;;;;;-143.48;88.65;118439.88;5034930;28;20037;-63
2022/12/05 05:18:31;;;;;;;33.13;15.05;;;;;;;-143.48;88.57;118439.88;5034923;28;20029;-64
2022/12/05 05:20:56;;;;;;;31.33;15.55;;;;;;;-143.48;88.20;118439.88;5034849;28;20384;-63
2022/12/05 05:23:22;;;;;;;36.72;16.65;;;;;;;-143.48;88.48;118439.88;5033571;28;20384;-63
2022/12/05 05:25:55;;;;;;;32.13;15.20;;;;;;;-143.48;88.33;118439.88;5034726;28;20029;-63
2022/12/05 05:28:21;;;;;;;31.52;14.85;;;;;;;-143.48;87.68;118439.88;5034671;28;20045;-64
2022/12/05 05:30:47;;;;;;;36.00;15.55;;;;;;;-143.48;87.55;118439.88;5034276;28;20476;-64
2022/12/05 05:33:12;;;;;;;32.95;15.38;;;;;;;-143.48;87.72;118439.88;5033347;28;20026;-64
2022/12/05 05:35:38;;;;;;;35.72;15.07;;;;;;;-143.48;87.37;118439.88;5033303;28;20116;-64
2022/12/05 05:38:03;;;;;;;30.95;15.23;;;;;;;-143.48;87.78;118439.88;5034507;28;20029;-63
2022/12/05 05:40:29;;;;;;;33.50;15.23;;;;;;;-143.48;87.75;118439.88;5034380;28;20469;-64
2022/12/05 05:42:54;;;;;;;32.17;15.00;;;;;;;-143.48;88.17;118439.88;5034475;28;20048;-63
2022/12/05 05:45:19;;;;;;;35.78;15.85;;;;;;;-143.48;88.27;118439.88;5034354;28;20397;-64
2022/12/05 05:47:47;;;;;;;33.95;14.65;;;;;;;-143.48;87.51;118439.88;5034266;28;20026;-64
2022/12/05 05:50:13;;;;;;;32.80;15.20;;;;;;;-143.48;87.54;118439.88;5034187;28;20112;-62
2022/12/05 05:52:39;;;;;;;36.97;16.05;;;;;;;-143.48;87.63;118439.88;5032806;28;20033;-63
2022/12/05 05:55:05;;;;;;;32.40;15.60;;;;;;;-143.48;87.83;118439.88;5033929;28;20029;-64
2022/12/05 05:57:30;;;;;;;31.45;15.00;;;;;;;-143.48;87.61;118439.88;5034089;28;20030;-64
2022/12/05 05:59:56;;;;;;;32.28;15.15;;;;;;;-143.48;87.96;118439.88;5032810;28;20523;-62
2022/12/05 06:02:21;;;;;;;32.35;15.10;;;;;;;-143.48;87.51;118439.88;5032790;28;20401;-63
2022/12/05 06:04:46;;;;;;;34.63;15.55;;;;;;;-143.48;88.16;118439.88;5033964;28;20024;-64
2022/12/05 06:07:12;;;;;;;33.00;15.40;;;;;;;-143.48;87.75;118439.88;5034046;28;20028;-63
2022/12/05 06:09:37;;;;;;;37.38;15.45;;;;;;;-143.48;87.47;118439.88;5032486;28;20413;-64
2022/12/05 06:12:02;;;;;;;33.20;15.07;;;;;;;-143.48;87.47;118439.88;5032487;28;20112;-63
2022/12/05 06:14:28;;;;;;;30.88;14.27;;;;;;;-143.48;86.96;118439.88;5033829;28;20013;-63
2022/12/05 06:16:53;;;;;;;36.28;15.32;;;;;;;-143.48;87.03;118439.88;5032423;28;20033;-64
2022/12/05 06:19:18;;;;;;;34.33;15.30;;;;;;;-143.48;87.00;118439.88;5033659;28;20036;-63
2022/12/05 06:21:44;;;;;;;33.17;15.40;;;;;;;-143.48;88.09;118439.88;5032274;28;20504;-63
2022/12/05 06:24:09;;;;;;;33.67;14.95;;;;;;;-143.48;88.40;118439.88;5033726;28;20031;-64
2022/12/05 06:26:34;;;;;;;34.95;15.02;;;;;;;-143.48;87.72;118439.88;5032211;28;20025;-64
2022/12/05 06:29:00;;;;;;;29.77;15.20;;;;;;;-143.48;87.91;118439.88;5033773;28;20060;-63
2022/12/05 06:31:27;;;;;;;33.83;14.48;;;;;;;-143.48;87.86;118439.88;5033437;28;20025;-63
2022/12/05 06:33:52;;;;;;;31.75;14.55;;;;;;;-143.48;87.94;118439.88;5033404;28;20056;-64
2022/12/05 06:36:20;;;;;;;30.30;13.93;;;;;;;-143.48;87.12;118439.88;5033356;28;20069;-64
2022/12/05 06:38:46;;;;;;;31.85;14.15;;;;;;;-143.48;87.87;118439.88;5033368;28;20477;-62
2022/12/05 06:41:15;;;;;;;29.02;14.48;;;;;;;-143.48;88.44;118439.88;5033191;28;20032;-64
2022/12/05 06:43:41;;;;;;;28.00;13.38;;;;;;;-143.48;88.12;118439.88;5031531;28;20036;-62
2022/12/05 06:46:08;;;;;;;25.75;12.65;;;;;;;-143.48;87.77;118439.88;5033240;28;20029;-62
2022/12/05 06:48:34;;;;;;;28.73;13.38;;;;;;;-143.48;88.21;118439.88;5031934;28;20033;-62
2022/12/05 06:50:59;;;;;;;26.55;12.23;;;;;;;-143.48;88.61;118439.88;5033125;28;20032;-63
2022/12/05 06:53:25;;;;;;;23.38;12.35;;;;;;;-143.48;88.28;118439.88;5033195;28;20477;-62
2022/12/05 06:55:58;;;;;;;25.90;12.55;;;;;;;-143.48;88.14;118439.88;5032034;28;20046;-62
2022/12/05 06:58:24;;;;;;;23.23;11.48;;;;;;;-143.48;88.10;118439.88;5031854;28;20059;-63
2022/12/05 07:03:34;;;;;;;23.40;11.98;;;;;;;-143.48;88.67;118439.88;5033292;28;20040;-64
2022/12/05 07:06:00;;;;;;;21.35;11.07;;;;;;;-143.48;88.62;118439.88;5034188;28;20033;-64
2022/12/05 07:08:26;;;;;;;23.95;11.77;;;;;;;-143.48;88.81;118439.88;5037765;28;20052;-63
2022/12/05 07:10:53;;;;;;;22.23;11.25;;;;;;;-143.48;88.14;118439.88;5034420;28;20091;-62
2022/12/05 07:13:18;;;;;;;21.95;11.23;;;;;;;-143.48;88.76;118439.88;5033820;28;20477;-64
2022/12/05 07:15:46;;;;;;;21.52;10.70;;;;;;;-143.48;88.29;118439.88;5032378;28;20083;-66
2022/12/05 07:18:12;;;;;;;21.88;10.95;;;;;;;-143.48;88.35;118439.88;5032171;28;20065;-65
2022/12/05 07:20:37;;;;;;;16.55;9.65;;;;;;;-143.48;88.22;118439.88;5033674;28;20033;-65
2022/12/05 07:23:02;;;;;;;23.58;11.00;;;;;;;-143.48;88.40;118439.88;5033286;28;20233;-64
2022/12/05 07:25:28;;;;;;;23.15;11.20;;;;;;;-143.48;88.14;118439.88;5033553;28;20071;-62
2022/12/05 07:27:53;;;;;;;20.88;10.15;;;;;;;-143.48;88.11;118439.88;5034006;28;20030;-62
2022/12/05 07:30:18;;;;;;;18.20;10.88;;;;;;;-143.48;87.93;118439.88;5034159;28;20108;-64
2022/12/05 07:32:44;;;;;;;18.30;10.23;;;;;;;-143.48;88.19;118439.88;5034048;28;20534;-64
2022/12/05 07:35:09;;;;;;;18.88;10.30;;;;;;;-143.48;87.73;118439.88;5035048;28;20025;-66
2022/12/05 07:37:34;;;;;;;19.83;10.57;;;;;;;-143.48;88.12;118439.88;5041704;28;20049;-65
2022/12/05 07:39:59;;;;;;;20.02;10.52;;;;;;;-143.48;88.17;118439.88;5042442;28;20030;-65
2022/12/05 07:42:25;;;;;;;19.02;10.60;;;;;;;-143.48;87.55;118439.88;5043482;28;20021;-63
2022/12/05 07:44:50;;;;;;;20.58;10.10;;;;;;;-143.48;87.61;118439.88;5043437;28;20029;-65
2022/12/05 07:47:15;;;;;;;17.40;10.40;;;;;;;-143.48;87.23;118439.88;5040729;28;20056;-66
2022/12/05 07:49:41;;;;;;;15.82;9.85;;;;;;;-143.48;87.75;118439.88;5041320;28;20026;-64
2022/12/05 07:52:06;;;;;;;19.70;9.77;;;;;;;-143.48;87.49;118439.88;5042247;28;20140;-66
2022/12/05 07:54:32;;;;;;;16.23;9.55;;;;;;;-143.48;87.20;118439.88;5041478;28;20033;-63
2022/12/05 07:56:57;;;;;;;16.17;9.57;;;;;;;-143.48;87.03;118439.88;5038837;28;20053;-63
2022/12/05 07:59:22;;;;;;;19.20;9.80;;;;;;;-143.48;87.47;118439.88;5038262;28;20085;-63
2022/12/05 08:01:48;;;;;;;15.52;9.38;;;;;;;-143.48;87.91;118439.88;5038339;28;20409;-63
2022/12/05 08:04:13;;;;;;;17.83;10.63;;;;;;;-143.48;88.02;118439.88;5039938;28;20036;-75
2022/12/05 08:06:38;;;;;;;15.95;9.40;;;;;;;-143.48;87.87;118439.88;5039805;28;20033;-73
2022/12/05 08:09:04;;;;;;;15.70;9.10;;;;;;;-143.48;87.76;118439.88;5040011;28;20025;-75
2022/12/05 08:11:34;;;;;;;15.73;9.23;;;;;;;-143.48;87.46;118439.88;5036847;28;20462;-63
2022/12/05 08:13:59;;;;;;;14.27;9.02;;;;;;;-143.48;87.47;118439.88;5038210;28;20025;-64
2022/12/05 08:16:27;;;;;;;12.88;8.18;;;;;;;-143.48;88.07;118439.88;5036635;28;20392;-64
2022/12/05 08:18:56;;;;;;;12.93;8.32;;;;;;;-143.48;87.81;118439.88;5034782;28;20396;-66
2022/12/05 08:21:24;;;;;;;13.10;8.27;;;;;;;-143.48;87.36;118439.88;5036646;28;20393;-65
2022/12/05 08:23:50;;;;;;;14.57;7.78;;;;;;;-143.48;87.42;118439.88;5036103;28;20136;-64
2022/12/05 08:26:19;;;;;;;12.85;7.72;;;;;;;-143.48;87.48;118439.88;5035908;28;20041;-66
2022/12/05 08:28:45;;;;;;;11.50;7.13;;;;;;;-143.48;88.01;118439.88;5034594;28;20037;-64
2022/12/05 08:31:14;;;;;;;11.43;7.45;;;;;;;-143.48;87.86;118439.88;5035284;28;20501;-65
2022/12/05 08:33:40;;;;;;;11.43;7.22;;;;;;;-143.48;87.66;118439.88;5035422;28;20100;-66
2022/12/05 08:36:08;;;;;;;12.00;6.68;;;;;;;-143.48;87.49;118439.88;5033737;28;20025;-65
2022/12/05 08:38:34;;;;;;;10.73;7.03;;;;;;;-143.48;87.39;118439.88;5034805;28;20043;-64
2022/12/05 08:41:01;;;;;;;10.85;7.00;;;;;;;-143.48;87.85;118439.88;5034789;28;20025;-66
2022/12/05 08:43:30;;;;;;;9.25;6.28;;;;;;;-143.48;87.80;118439.88;5034483;28;20021;-66
2022/12/05 08:45:56;;;;;;;9.48;6.15;;;;;;;-143.48;86.90;118439.88;5035421;28;20025;-61
2022/12/05 08:48:23;;;;;;;11.93;6.53;;;;;;;-143.48;87.24;118439.88;5034054;28;20036;-63
2022/12/05 08:50:49;;;;;;;11.18;6.50;;;;;;;-143.48;87.39;118439.88;5031799;28;20452;-66
2022/12/05 08:53:14;;;;;;;11.93;6.43;;;;;;;-143.48;86.84;118439.88;5033510;28;20125;-64
2022/12/05 08:55:40;;;;;;;7.90;5.90;;;;;;;-143.48;86.26;118439.88;5033156;28;20057;-62
2022/12/05 08:58:05;;;;;;;10.05;6.03;;;;;;;-143.48;87.42;118439.88;5033292;28;20034;-64
2022/12/05 09:00:30;;;;;;;10.40;6.20;;;;;;;-143.48;86.81;118439.88;5033388;28;20393;-65
2022/12/05 09:02:57;;;;;;;9.27;5.90;;;;;;;-143.48;86.31;118439.88;5033891;28;20072;-63
2022/12/05 09:05:22;;;;;;;11.02;6.20;;;;;;;-143.48;86.54;118439.88;5034581;28;20488;-66
2022/12/05 09:07:47;;;;;;;9.68;6.40;;;;;;;-143.48;86.64;118439.88;5035436;28;20022;-75
2022/12/05 09:10:13;;;;;;;9.38;6.30;;;;;;;-143.48;86.59;118439.88;5035877;28;20465;-77
2022/12/05 09:12:39;;;;;;;9.48;6.15;;;;;;;-143.48;87.21;118439.88;5035772;28;20074;-76
2022/12/05 09:15:09;;;;;;;8.85;5.95;;;;;;;-143.48;86.53;118439.88;5035680;28;20033;-73
2022/12/05 09:17:35;;;;;;;8.50;5.75;;;;;;;-143.48;86.47;118439.88;5034210;28;20036;-75
2022/12/05 09:20:00;;;;;;;8.68;6.10;;;;;;;-143.48;86.47;118439.88;5034604;28;20030;-69
2022/12/05 09:22:26;;;;;;;9.50;5.97;;;;;;;-143.48;85.90;118439.88;5033523;28;20443;-68
2022/12/05 09:24:51;;;;;;;8.02;5.75;;;;;;;-143.48;85.28;118439.88;5034522;28;20033;-69
2022/12/05 09:27:17;;;;;;;8.93;6.10;;;;;;;-143.48;86.19;118439.88;5035276;28;20112;-69
2022/12/05 09:29:42;;;;;;;9.55;5.95;;;;;;;-143.48;85.93;118439.88;5034893;28;20030;-69
2022/12/05 09:32:08;;;;;;;9.13;6.15;;;;;;;-143.48;86.22;118439.88;5034752;28;20113;-69
2022/12/05 09:34:33;;;;;;;8.65;6.28;;;;;;;-143.48;86.09;118439.88;5034872;28;20033;-67
2022/12/05 09:37:00;;;;;;;9.13;5.88;;;;;;;-143.48;86.27;118439.88;5034491;28;20108;-68
2022/12/05 09:39:26;;;;;;;9.10;6.15;;;;;;;-143.48;86.43;118439.88;5033242;28;20037;-68
2022/12/05 09:42:22;;;;;;;8.48;5.60;;;;;;;-143.48;85.99;118439.88;5034357;28;20060;-66
2022/12/05 09:45:21;;;;;;;7.50;5.30;;;;;;;-143.48;85.90;118439.88;5034349;28;20060;-69
2022/12/05 09:48:04;;;;;;;8.63;5.50;;;;;;;-143.48;85.49;118439.88;5034482;28;20661;-69
2022/12/05 09:50:33;;;;;;;;;;;;;;;-143.48;84.89;118439.88;5034193;28;20061;-69
2022/12/05 09:53:03;;;;;;;10.75;5.10;;;;;;;-143.48;85.93;118439.88;5034287;28;20015;-70
2022/12/05 09:55:54;;;;;;;10.57;5.38;;;;;;;-143.48;85.24;118439.88;5033958;28;20421;-68
2022/12/05 09:58:40;;;;;;;8.57;4.85;;;;;;;-143.48;85.72;118439.88;5034233;28;20045;-68
2022/12/05 10:01:44;;;;;;;6.55;4.55;;;;;;;-143.48;86.25;118439.88;5034078;28;20021;-69
2022/12/05 10:04:21;;;;;;;6.00;4.10;;;;;;;-143.48;86.14;118439.88;4994545;28;20030;-68
2022/12/05 10:07:09;;;;;;;6.25;4.05;;;;;;;-143.48;85.49;118439.88;5033994;28;20493;-68
2022/12/05 10:09:49;;;;;;;6.68;4.43;;;;;;;-143.48;85.52;118439.88;5034001;28;20052;-69
2022/12/05 10:13:01;;;;;;;6.88;4.38;;;;;;;-143.48;85.52;118439.88;5032517;28;20072;-69
2022/12/05 10:15:36;;;;;;;5.95;4.05;;;;;;;-143.48;86.04;118439.88;4953290;29;20118;-69
2022/12/05 10:18:09;;;;;;;7.43;4.40;;;;;;;-143.48;85.80;118439.88;4935975;29;20026;-69
2022/12/05 10:20:47;;;;;;;6.10;4.20;;;;;;;-143.48;86.54;118439.88;5002620;28;20496;-69
2022/12/05 10:23:24;;;;;;;5.95;4.15;;;;;;;-143.48;85.18;118439.88;5032303;28;20092;-67
2022/12/05 10:25:57;;;;;;;6.78;4.22;;;;;;;-143.48;85.09;118439.88;5032000;28;20033;-68
2022/12/05 10:28:32;;;;;;;9.60;4.13;;;;;;;-143.48;86.14;118439.88;5032603;28;20434;-65
2022/12/05 10:31:01;;;;;;;6.25;4.15;;;;;;;-143.48;86.12;118439.88;5032966;28;20017;-66
2022/12/05 10:33:32;;;;;;;5.72;4.07;;;;;;;-143.48;85.70;118439.88;5032671;28;20099;-64
2022/12/05 10:35:57;;;;;;;5.38;3.95;;;;;;;-143.48;85.48;118439.88;5031756;28;20032;-65
2022/12/05 10:38:26;;;;;;;7.40;4.55;;;;;;;-143.48;85.91;118439.88;5031716;28;20284;-65
2022/12/05 10:40:57;;;;;;;8.93;4.75;;;;;;;-143.48;85.19;118439.88;5033471;28;20516;-65
2022/12/05 10:43:28;;;;;;;7.95;4.75;;;;;;;-143.48;85.99;118439.88;5033370;28;20362;-64
2022/12/05 10:45:54;;;;;;;6.75;4.43;;;;;;;-143.48;85.67;118439.88;5034980;28;20526;-64
2022/12/05 10:48:21;;;;;;;6.50;4.47;;;;;;;-143.48;85.45;118439.88;5033509;28;20026;-63
2022/12/05 10:50:49;;;;;;;6.03;4.15;;;;;;;-143.48;84.74;118439.88;5034408;28;20541;-63
2022/12/05 10:53:19;;;;;;;7.95;4.60;;;;;;;-143.48;85.57;118439.88;5036878;28;20032;-71
2022/12/05 10:55:46;;;;;;;6.95;4.57;;;;;;;-143.48;85.14;118439.88;5033409;28;20041;-70
2022/12/05 10:58:22;;;;;;;7.47;4.68;;;;;;;-143.48;84.79;118439.88;5033239;28;20373;-70
2022/12/05 11:00:50;;;;;;;7.43;4.63;;;;;;;-143.48;85.36;118439.88;5033373;28;20029;-70
2022/12/05 11:03:30;;;;;;;8.82;4.90;;;;;;;-143.48;85.93;118439.88;5033387;28;20028;-69
2022/12/05 11:06:14;;;;;;;8.95;4.38;;;;;;;-143.48;85.18;118439.88;5033024;28;20108;-70
2022/12/05 11:08:40;;;;;;;7.15;4.85;;;;;;;-143.48;85.28;118439.88;5033238;28;20026;-70
2022/12/05 11:11:17;;;;;;;6.88;4.90;;;;;;;-143.48;86.01;118439.88;5032927;28;20480;-70
2022/12/05 11:14:22;;;;;;;6.60;4.57;;;;;;;-143.48;86.01;118439.88;5034336;28;20107;-70
2022/12/05 11:16:58;;;;;;;7.05;4.43;;;;;;;-143.48;86.12;118439.88;4952747;29;20031;-70
2022/12/05 11:19:27;;;;;;;9.30;5.22;;;;;;;-143.48;86.24;118439.88;5024586;28;20107;-70
2022/12/05 11:21:53;;;;;;;6.35;4.20;;;;;;;-143.48;85.44;118439.88;5030864;28;20026;-72
2022/12/05 11:24:22;;;;;;;10.98;5.00;;;;;;;-143.48;84.84;118439.88;5032622;28;20021;-69